createdAt,value
2018-05-18T00:01:12.631Z,22.00
2018-05-18T00:03:40.169Z,23.80
2018-05-18T00:06:08.472Z,25.73
2018-05-18T00:08:36.103Z,21.98
2018-05-18T00:11:04.405Z,21.10
2018-05-18T00:13:31.934Z,24.05
2018-05-18T00:15:59.469Z,24.85
2018-05-18T00:18:27.012Z,19.25
2018-05-18T00:20:54.566Z,18.87
2018-05-18T00:23:22.119Z,23.23
2018-05-18T00:25:49.628Z,19.92
2018-05-18T00:28:17.137Z,18.02
2018-05-18T00:30:44.737Z,21.60
2018-05-18T00:33:12.276Z,16.20
2018-05-18T00:35:39.802Z,20.15
2018-05-18T00:38:07.334Z,21.07
2018-05-18T00:40:35.007Z,23.55
2018-05-18T00:43:02.539Z,17.80
2018-05-18T00:45:30.057Z,22.58
2018-05-18T00:47:57.662Z,21.52
2018-05-18T00:50:26.928Z,14.82
2018-05-18T00:52:54.483Z,23.67
2018-05-18T00:55:33.988Z,22.10
2018-05-18T00:58:02.303Z,19.85
2018-05-18T01:00:29.837Z,20.58
2018-05-18T01:02:57.369Z,24.75
2018-05-18T01:05:24.881Z,22.58
2018-05-18T01:07:52.418Z,25.85
2018-05-18T01:10:19.960Z,20.60
2018-05-18T01:12:48.249Z,20.58
2018-05-18T01:15:16.549Z,20.05
2018-05-18T01:17:44.069Z,23.58
2018-05-18T01:20:12.362Z,18.90
2018-05-18T01:22:39.910Z,26.27
2018-05-18T01:25:08.223Z,19.00
2018-05-18T01:27:35.980Z,20.02
2018-05-18T01:30:03.507Z,23.02
2018-05-18T01:32:31.831Z,18.02
2018-05-18T01:34:59.388Z,26.27
2018-05-18T01:37:35.736Z,18.83
2018-05-18T01:40:03.398Z,22.10
2018-05-18T01:42:31.340Z,19.57
2018-05-18T01:45:06.121Z,24.27
2018-05-18T01:47:33.672Z,21.33
2018-05-18T01:50:01.265Z,23.27
2018-05-18T01:52:28.795Z,21.10
2018-05-18T01:54:56.432Z,21.50
2018-05-18T01:57:23.957Z,23.87
2018-05-18T01:59:51.523Z,19.55
2018-05-18T02:02:35.207Z,20.00
2018-05-18T02:05:04.250Z,23.60
2018-05-18T02:07:31.780Z,18.70
2018-05-18T02:09:59.334Z,20.47
2018-05-18T02:12:26.864Z,27.83
2018-05-18T02:14:54.417Z,17.27
2018-05-18T02:17:22.913Z,18.83
2018-05-18T02:19:50.501Z,24.80
2018-05-18T02:22:18.071Z,21.60
2018-05-18T02:24:45.640Z,20.30
2018-05-18T02:27:13.353Z,22.75
2018-05-18T02:29:44.939Z,20.17
2018-05-18T02:32:12.475Z,18.90
2018-05-18T02:34:40.014Z,18.58
2018-05-18T02:37:08.295Z,19.23
2018-05-18T02:39:35.845Z,21.57
2018-05-18T02:42:03.373Z,17.45
2018-05-18T02:44:30.912Z,17.93
2018-05-18T02:46:58.460Z,19.70
2018-05-18T02:49:26.030Z,19.77
2018-05-18T02:51:53.563Z,16.85
2018-05-18T02:54:21.110Z,19.67
2018-05-18T02:56:49.440Z,18.23
2018-05-18T02:59:17.054Z,16.60
2018-05-18T03:01:44.598Z,21.23
2018-05-18T03:04:12.129Z,20.98
2018-05-18T03:06:39.665Z,21.65
2018-05-18T03:09:07.167Z,15.88
2018-05-18T03:11:34.714Z,15.38
2018-05-18T03:14:02.233Z,17.02
2018-05-18T03:16:29.934Z,16.02
2018-05-18T03:18:58.344Z,15.73
2018-05-18T03:21:25.870Z,15.50
2018-05-18T03:23:53.380Z,16.52
2018-05-18T03:26:20.909Z,16.90
2018-05-18T03:28:48.462Z,16.25
2018-05-18T03:31:16.030Z,11.65
2018-05-18T03:33:43.575Z,21.10
2018-05-18T03:36:11.113Z,19.60
2018-05-18T03:38:38.634Z,17.30
2018-05-18T03:41:06.918Z,19.33
2018-05-18T03:43:35.255Z,16.45
2018-05-18T03:46:02.765Z,17.40
2018-05-18T03:48:31.236Z,15.57
2018-05-18T03:50:58.764Z,17.83
2018-05-18T03:53:26.287Z,15.37
2018-05-18T03:55:53.792Z,15.13
2018-05-18T03:58:21.352Z,16.65
2018-05-18T04:00:48.875Z,18.37
2018-05-18T04:03:28.167Z,16.87
2018-05-18T04:06:08.237Z,15.32
2018-05-18T04:08:48.456Z,17.00
2018-05-18T04:11:15.994Z,20.95
2018-05-18T04:13:43.550Z,16.33
2018-05-18T04:16:11.944Z,14.52
2018-05-18T04:18:39.569Z,15.47
2018-05-18T04:21:07.125Z,19.87
2018-05-18T04:23:34.671Z,15.30
2018-05-18T04:26:02.230Z,14.68
2018-05-18T04:28:29.785Z,15.57
2018-05-18T04:30:58.075Z,17.62
2018-05-18T04:33:25.610Z,12.73
2018-05-18T04:35:53.207Z,16.10
2018-05-18T04:38:20.881Z,16.70
2018-05-18T04:40:48.513Z,16.25
2018-05-18T04:43:17.208Z,13.03
2018-05-18T04:45:45.566Z,18.05
2018-05-18T04:48:13.297Z,15.80
2018-05-18T04:50:41.208Z,15.77
2018-05-18T04:53:08.913Z,16.80
2018-05-18T04:55:36.863Z,19.20
2018-05-18T04:58:04.533Z,17.08
2018-05-18T05:00:32.232Z,15.15
2018-05-18T05:02:59.919Z,16.30
2018-05-18T05:05:37.351Z,19.40
2018-05-18T05:08:04.996Z,16.87
2018-05-18T05:10:32.538Z,20.12
2018-05-18T05:13:04.914Z,14.93
2018-05-18T05:15:33.226Z,16.50
2018-05-18T05:18:01.158Z,19.08
2018-05-18T05:20:29.128Z,18.85
2018-05-18T05:22:57.768Z,18.60
2018-05-18T05:25:25.490Z,16.45
2018-05-18T05:27:53.012Z,17.02
2018-05-18T05:30:20.935Z,16.17
2018-05-18T05:32:48.515Z,15.50
2018-05-18T05:35:16.098Z,16.50
2018-05-18T05:37:43.707Z,20.67
2018-05-18T05:40:11.323Z,16.83
2018-05-18T05:42:39.007Z,22.10
2018-05-18T05:45:06.621Z,22.10
2018-05-18T05:47:35.198Z,20.55
2018-05-18T05:50:04.662Z,19.70
2018-05-18T05:52:32.285Z,19.37
2018-05-18T05:54:59.843Z,16.07
2018-05-18T05:57:27.389Z,22.85
2018-05-18T05:59:54.938Z,22.27
2018-05-18T06:02:22.453Z,20.10
2018-05-18T06:04:49.978Z,17.17
2018-05-18T06:07:17.528Z,17.37
2018-05-18T06:09:45.051Z,22.23
2018-05-18T06:12:13.573Z,20.92
2018-05-18T06:14:41.070Z,22.13
2018-05-18T06:17:08.692Z,20.90
2018-05-18T06:19:36.355Z,20.20
2018-05-18T06:22:03.901Z,16.05
2018-05-18T06:24:31.432Z,19.37
2018-05-18T06:26:59.747Z,19.87
2018-05-18T06:29:27.373Z,20.23
2018-05-18T06:31:54.940Z,20.10
2018-05-18T06:34:22.479Z,20.85
2018-05-18T06:36:50.767Z,20.70
2018-05-18T06:39:19.042Z,18.08
2018-05-18T06:41:47.456Z,19.12
2018-05-18T06:44:15.055Z,21.45
2018-05-18T06:46:42.678Z,24.17
2018-05-18T06:49:10.283Z,19.75
2018-05-18T06:51:37.829Z,20.65
2018-05-18T06:54:05.383Z,20.62
2018-05-18T06:56:32.921Z,16.17
2018-05-18T06:59:00.557Z,20.98
2018-05-18T07:01:28.894Z,18.58
2018-05-18T07:03:56.469Z,20.02
2018-05-18T07:06:23.972Z,21.40
2018-05-18T07:08:51.497Z,20.05
2018-05-18T07:11:19.069Z,18.58
2018-05-18T07:13:47.474Z,17.98
2018-05-18T07:16:15.028Z,19.65
2018-05-18T07:18:42.664Z,23.38
2018-05-18T07:21:10.948Z,20.98
2018-05-18T07:23:39.252Z,15.63
2018-05-18T07:26:06.850Z,15.20
2018-05-18T07:28:34.378Z,18.50
2018-05-18T07:31:01.900Z,22.75
2018-05-18T07:33:29.415Z,22.65
2018-05-18T07:35:57.014Z,24.80
2018-05-18T07:38:24.552Z,21.17
2018-05-18T07:40:52.111Z,22.40
2018-05-18T07:43:19.693Z,22.27
2018-05-18T07:45:47.225Z,20.98
2018-05-18T07:48:14.752Z,21.48
2018-05-18T07:50:42.316Z,22.23
2018-05-18T07:53:09.844Z,20.50
2018-05-18T07:55:37.369Z,25.90
2018-05-18T07:58:04.924Z,29.37
2018-05-18T08:00:32.471Z,28.65
2018-05-18T08:03:00.005Z,22.17
2018-05-18T08:05:27.554Z,23.92
2018-05-18T08:07:55.198Z,23.52
2018-05-18T08:10:22.689Z,18.90
2018-05-18T08:12:50.201Z,18.62
2018-05-18T08:15:18.540Z,24.23
2018-05-18T08:17:46.059Z,15.90
2018-05-18T08:20:13.596Z,17.20
2018-05-18T08:22:41.176Z,22.23
2018-05-18T08:25:08.685Z,23.17
2018-05-18T08:27:36.252Z,20.58
2018-05-18T08:30:03.776Z,17.98
2018-05-18T08:32:31.333Z,16.35
2018-05-18T08:34:59.649Z,17.25
2018-05-18T08:37:27.194Z,20.23
2018-05-18T08:39:54.722Z,18.35
2018-05-18T08:42:23.019Z,20.15
2018-05-18T08:44:50.541Z,16.65
2018-05-18T08:47:18.043Z,17.52
2018-05-18T08:49:45.616Z,15.75
2018-05-18T08:52:13.170Z,17.47
2018-05-18T08:54:40.704Z,17.83
2018-05-18T08:57:09.007Z,17.70
2018-05-18T08:59:36.553Z,20.10
2018-05-18T09:02:04.133Z,19.33
2018-05-18T09:04:31.695Z,15.77
2018-05-18T09:06:59.257Z,16.00
2018-05-18T09:09:26.796Z,17.05
2018-05-18T09:11:54.499Z,16.98
2018-05-18T09:14:22.025Z,24.10
2018-05-18T09:16:49.564Z,19.50
2018-05-18T09:19:17.863Z,19.65
2018-05-18T09:21:45.441Z,17.67
2018-05-18T09:24:13.027Z,17.67
2018-05-18T09:26:40.545Z,22.35
2018-05-18T09:29:08.100Z,14.90
2018-05-18T09:31:35.639Z,17.05
2018-05-18T09:34:03.267Z,18.17
2018-05-18T09:36:30.712Z,17.55
2018-05-18T09:38:58.353Z,19.27
2018-05-18T09:41:25.903Z,15.40
2018-05-18T09:43:53.424Z,17.25
2018-05-18T09:46:21.784Z,16.62
2018-05-18T09:48:49.365Z,19.98
2018-05-18T09:51:17.657Z,19.17
2018-05-18T09:53:45.179Z,17.58
2018-05-18T09:56:13.455Z,16.60
2018-05-18T09:58:40.971Z,17.75
2018-05-18T10:01:08.520Z,20.17
2018-05-18T10:03:36.441Z,16.67
2018-05-18T10:06:03.980Z,18.23
2018-05-18T10:08:31.496Z,19.60
2018-05-18T10:10:59.026Z,17.73
2018-05-18T10:13:26.574Z,15.45
2018-05-18T10:15:54.107Z,14.05
2018-05-18T10:18:21.625Z,14.65
2018-05-18T10:20:49.965Z,14.52
2018-05-18T10:23:17.532Z,14.57
2018-05-18T10:25:45.070Z,15.45
2018-05-18T10:28:12.617Z,15.35
2018-05-18T10:30:40.145Z,15.27
2018-05-18T10:33:08.446Z,17.15
2018-05-18T10:35:35.978Z,15.82
2018-05-18T10:38:03.538Z,16.37
2018-05-18T10:40:31.836Z,15.80
2018-05-18T10:42:59.365Z,14.20
2018-05-18T10:45:26.909Z,15.40
2018-05-18T10:47:54.453Z,15.32
2018-05-18T10:50:22.016Z,14.63
2018-05-18T10:52:49.545Z,14.15
2018-05-18T10:55:17.058Z,14.05
2018-05-18T10:57:44.578Z,16.05
2018-05-18T11:00:12.257Z,15.20
2018-05-18T11:02:39.814Z,15.75
2018-05-18T11:05:07.369Z,14.05
2018-05-18T11:07:34.932Z,15.18
2018-05-18T11:10:02.442Z,12.70
2018-05-18T11:12:29.977Z,13.15
2018-05-18T11:14:57.492Z,13.45
2018-05-18T11:17:25.064Z,14.03
2018-05-18T11:19:52.594Z,18.83
2018-05-18T11:22:20.901Z,12.93
2018-05-18T11:24:48.406Z,12.15
2018-05-18T11:27:16.061Z,15.55
2018-05-18T11:29:43.571Z,14.00
2018-05-18T11:32:11.105Z,14.50
2018-05-18T11:34:39.398Z,13.82
2018-05-18T11:37:06.941Z,13.65
2018-05-18T11:39:34.525Z,13.15
2018-05-18T11:42:02.062Z,13.65
2018-05-18T11:44:29.596Z,13.77
2018-05-18T11:46:57.130Z,14.67
2018-05-18T11:49:24.642Z,14.87
2018-05-18T11:51:52.942Z,11.57
2018-05-18T11:54:20.488Z,16.08
2018-05-18T11:56:48.844Z,15.30
2018-05-18T11:59:16.420Z,13.48
2018-05-18T12:01:44.699Z,14.35
2018-05-18T12:04:12.984Z,15.87
2018-05-18T12:06:40.539Z,12.73
2018-05-18T12:09:08.121Z,15.00
2018-05-18T12:11:35.614Z,15.02
2018-05-18T12:14:03.188Z,16.02
2018-05-18T12:16:30.734Z,15.07
2018-05-18T12:18:58.372Z,14.50
2018-05-18T12:21:25.973Z,15.60
2018-05-18T12:23:53.498Z,15.60
2018-05-18T12:26:21.046Z,15.95
2018-05-18T12:28:48.605Z,14.30
2018-05-18T12:31:16.182Z,16.30
2018-05-18T12:33:43.739Z,19.62
2018-05-18T12:36:11.299Z,14.68
2018-05-18T12:38:38.832Z,15.82
2018-05-18T12:41:06.404Z,14.95
2018-05-18T12:43:33.933Z,17.65
2018-05-18T12:46:02.257Z,13.27
2018-05-18T12:48:29.781Z,15.18
2018-05-18T12:50:57.397Z,12.70
2018-05-18T12:53:25.047Z,14.98
2018-05-18T12:55:52.565Z,13.20
2018-05-18T12:58:20.085Z,14.57
2018-05-18T13:00:47.631Z,13.50
2018-05-18T13:03:15.208Z,13.52
2018-05-18T13:05:42.813Z,13.48
2018-05-18T13:08:10.354Z,14.87
2018-05-18T13:10:37.881Z,12.98
2018-05-18T13:13:05.431Z,14.63
2018-05-18T13:15:32.973Z,14.10
2018-05-18T13:18:00.501Z,12.32
2018-05-18T13:20:28.805Z,12.07
2018-05-18T13:22:56.326Z,13.13
2018-05-18T13:25:23.849Z,13.95
2018-05-18T13:27:51.391Z,14.20
2018-05-18T13:30:18.899Z,17.15
2018-05-18T13:32:46.469Z,17.05
2018-05-18T13:35:14.009Z,12.45
2018-05-18T13:37:41.531Z,13.32
2018-05-18T13:40:09.107Z,12.77
2018-05-18T13:42:36.727Z,15.63
2018-05-18T13:45:04.268Z,12.57
2018-05-18T13:47:32.566Z,15.90
2018-05-18T13:50:00.147Z,12.60
2018-05-18T13:52:27.699Z,11.98
2018-05-18T13:54:55.227Z,13.23
2018-05-18T13:57:23.532Z,11.90
2018-05-18T13:59:51.156Z,13.80
2018-05-18T14:02:18.711Z,12.68
2018-05-18T14:04:46.257Z,12.40
2018-05-18T14:07:13.805Z,12.45
2018-05-18T14:09:41.318Z,14.43
2018-05-18T14:12:09.629Z,14.60
2018-05-18T14:14:37.142Z,11.65
2018-05-18T14:17:04.694Z,15.80
2018-05-18T14:19:32.307Z,13.93
2018-05-18T14:21:59.829Z,13.65
2018-05-18T14:24:28.142Z,13.18
2018-05-18T14:26:55.687Z,14.68
2018-05-18T14:29:23.226Z,13.07
2018-05-18T14:31:51.574Z,14.48
2018-05-18T14:34:19.100Z,16.67
2018-05-18T14:36:47.372Z,13.27
2018-05-18T14:39:14.980Z,14.60
2018-05-18T14:41:42.611Z,14.07
2018-05-18T14:44:10.248Z,14.85
2018-05-18T14:46:37.859Z,14.63
2018-05-18T14:49:06.179Z,14.77
2018-05-18T14:51:34.470Z,14.93
2018-05-18T14:54:02.000Z,13.80
2018-05-18T14:56:29.518Z,16.00
2018-05-18T14:58:57.043Z,12.60
2018-05-18T15:01:24.590Z,14.02
2018-05-18T15:03:52.895Z,13.70
2018-05-18T15:06:20.704Z,15.20
2018-05-18T15:08:48.238Z,16.10
2018-05-18T15:11:15.779Z,16.75
2018-05-18T15:13:43.361Z,14.85
2018-05-18T15:16:10.894Z,14.70
2018-05-18T15:18:38.451Z,14.60
2018-05-18T15:21:05.982Z,15.10
2018-05-18T15:23:35.075Z,16.15
2018-05-18T15:26:02.742Z,14.90
2018-05-18T15:28:31.054Z,15.05
2018-05-18T15:30:58.585Z,14.75
2018-05-18T15:33:26.142Z,15.65
2018-05-18T15:35:54.420Z,17.02
2018-05-18T15:38:22.703Z,15.30
2018-05-18T15:40:51.070Z,15.98
2018-05-18T15:43:18.585Z,15.68
2018-05-18T15:45:46.158Z,14.80
2018-05-18T15:48:13.722Z,14.05
2018-05-18T15:50:41.271Z,16.25
2018-05-18T15:53:08.864Z,18.67
2018-05-18T15:55:36.424Z,16.75
2018-05-18T15:58:03.998Z,15.20
2018-05-18T16:00:31.662Z,15.32
2018-05-18T16:02:59.985Z,15.20
2018-05-18T16:05:27.550Z,14.80
2018-05-18T16:07:55.077Z,15.15
2018-05-18T16:10:22.613Z,14.60
2018-05-18T16:12:50.231Z,15.00
2018-05-18T16:15:18.465Z,17.80
2018-05-18T16:17:46.742Z,16.80
2018-05-18T16:20:15.046Z,16.23
2018-05-18T16:22:42.583Z,14.00
2018-05-18T16:25:10.126Z,16.52
2018-05-18T16:27:38.419Z,15.80
2018-05-18T16:30:05.934Z,16.98
2018-05-18T16:32:33.657Z,15.27
2018-05-18T16:35:01.271Z,13.93
2018-05-18T16:37:28.834Z,16.53
2018-05-18T16:39:56.452Z,13.95
2018-05-18T16:42:24.005Z,14.02
2018-05-18T16:44:51.556Z,15.95
2018-05-18T16:47:19.337Z,14.27
2018-05-18T16:49:47.089Z,14.85
2018-05-18T16:52:14.701Z,14.68
2018-05-18T16:54:42.218Z,17.85
2018-05-18T16:57:09.764Z,12.90
2018-05-18T16:59:37.294Z,14.02
2018-05-18T17:02:04.857Z,13.07
2018-05-18T17:04:33.152Z,12.95
2018-05-18T17:07:01.556Z,13.75
2018-05-18T17:09:29.178Z,19.77
2018-05-18T17:11:56.973Z,15.93
2018-05-18T17:14:24.613Z,16.30
2018-05-18T17:16:52.932Z,13.60
2018-05-18T17:19:20.487Z,13.48
2018-05-18T17:21:48.126Z,13.23
2018-05-18T17:24:15.710Z,13.20
2018-05-18T17:26:43.266Z,13.62
2018-05-18T17:29:10.804Z,14.43
2018-05-18T17:31:38.406Z,14.83
2018-05-18T17:34:05.923Z,15.88
2018-05-18T17:36:34.293Z,15.35
2018-05-18T17:39:01.831Z,13.10
2018-05-18T17:41:29.487Z,14.52
2018-05-18T17:43:56.947Z,15.60
2018-05-18T17:46:24.594Z,13.80
2018-05-18T17:48:52.255Z,15.02
2018-05-18T17:51:19.889Z,14.10
2018-05-18T17:53:47.357Z,12.95
2018-05-18T17:56:14.914Z,13.10
2018-05-18T17:58:42.446Z,14.13
2018-05-18T18:01:09.982Z,12.60
2018-05-18T18:03:38.089Z,14.77
2018-05-18T18:06:05.619Z,14.13
2018-05-18T18:08:33.234Z,12.93
2018-05-18T18:11:00.751Z,13.73
2018-05-18T18:13:29.057Z,17.70
2018-05-18T18:15:56.727Z,16.17
2018-05-18T18:18:24.263Z,14.32
2018-05-18T18:20:52.608Z,16.50
2018-05-18T18:23:20.167Z,14.15
2018-05-18T18:25:47.766Z,14.53
2018-05-18T18:28:15.305Z,15.38
2018-05-18T18:30:42.838Z,15.80
2018-05-18T18:33:10.390Z,14.10
2018-05-18T18:35:37.920Z,18.40
2018-05-18T18:38:05.486Z,13.73
2018-05-18T18:40:33.041Z,13.57
2018-05-18T18:43:00.584Z,15.63
2018-05-18T18:45:28.110Z,14.38
2018-05-18T18:47:55.644Z,14.18
2018-05-18T18:50:23.180Z,13.48
2018-05-18T18:52:50.808Z,13.77
2018-05-18T18:55:18.433Z,14.77
2018-05-18T18:57:46.031Z,15.88
2018-05-18T19:00:14.326Z,15.43
2018-05-18T19:02:42.637Z,16.27
2018-05-18T19:05:10.222Z,14.75
2018-05-18T19:07:37.875Z,15.60
2018-05-18T19:10:05.416Z,20.37
2018-05-18T19:12:32.980Z,17.05
2018-05-18T19:15:00.882Z,14.27
2018-05-18T19:17:28.426Z,16.83
2018-05-18T19:19:55.974Z,15.32
2018-05-18T19:22:23.496Z,15.50
2018-05-18T19:24:51.905Z,14.82
2018-05-18T19:27:19.618Z,16.55
2018-05-18T19:29:47.953Z,14.65
2018-05-18T19:32:15.538Z,16.00
2018-05-18T19:34:43.897Z,15.33
2018-05-18T19:37:11.488Z,16.08
2018-05-18T19:39:39.077Z,17.65
2018-05-18T19:42:06.635Z,17.80
2018-05-18T19:44:34.969Z,16.95
2018-05-18T19:47:02.476Z,19.77
2018-05-18T19:49:30.040Z,20.70
2018-05-18T19:51:57.580Z,15.93
2018-05-18T19:54:25.932Z,18.85
2018-05-18T19:56:53.474Z,17.42
2018-05-18T19:59:20.987Z,17.67
2018-05-18T20:01:48.540Z,17.27
2018-05-18T20:04:16.835Z,16.62
2018-05-18T20:06:44.373Z,17.08
2018-05-18T20:09:11.958Z,19.85
2018-05-18T20:11:39.498Z,16.67
2018-05-18T20:14:07.053Z,16.70
2018-05-18T20:16:34.701Z,19.23
2018-05-18T20:19:02.298Z,19.02
2018-05-18T20:21:29.819Z,17.70
2018-05-18T20:23:57.399Z,22.20
2018-05-18T20:26:25.009Z,21.75
2018-05-18T20:28:52.573Z,20.00
2018-05-18T20:31:20.086Z,19.80
2018-05-18T20:33:47.692Z,18.65
2018-05-18T20:36:15.228Z,19.50
2018-05-18T20:38:42.767Z,18.27
2018-05-18T20:41:10.290Z,20.92
2018-05-18T20:43:37.806Z,21.10
2018-05-18T20:46:05.416Z,19.37
2018-05-18T20:48:32.948Z,18.02
2018-05-18T20:51:00.466Z,19.52
2018-05-18T20:53:28.123Z,18.92
2018-05-18T20:55:56.436Z,17.83
2018-05-18T20:58:24.013Z,19.08
2018-05-18T21:00:51.527Z,19.90
2018-05-18T21:03:19.069Z,20.45
2018-05-18T21:05:46.609Z,18.58
2018-05-18T21:08:14.179Z,18.80
2018-05-18T21:10:41.725Z,18.23
2018-05-18T21:13:09.405Z,18.10
2018-05-18T21:15:36.956Z,19.85
2018-05-18T21:18:04.484Z,17.62
2018-05-18T21:20:32.003Z,19.52
2018-05-18T21:22:59.528Z,18.92
2018-05-18T21:25:27.104Z,18.92
2018-05-18T21:27:54.667Z,18.67
2018-05-18T21:30:22.211Z,20.58
2018-05-18T21:32:49.744Z,18.67
2018-05-18T21:35:17.287Z,19.20
2018-05-18T21:37:44.889Z,19.65
2018-05-18T21:40:13.234Z,21.02
2018-05-18T21:42:41.680Z,20.02
2018-05-18T21:45:10.034Z,23.48
2018-05-18T21:47:37.612Z,21.10
2018-05-18T21:50:05.142Z,22.75
2018-05-18T21:52:32.686Z,21.97
2018-05-18T21:55:00.223Z,22.05
2018-05-18T21:57:28.006Z,22.08
2018-05-18T21:59:55.536Z,21.98
2018-05-18T22:02:23.869Z,22.70
2018-05-18T22:04:51.401Z,24.67
2018-05-18T22:07:18.926Z,24.63
2018-05-18T22:09:47.247Z,26.10
2018-05-18T22:12:14.778Z,24.83
2018-05-18T22:14:42.311Z,23.33
2018-05-18T22:17:09.832Z,26.45
2018-05-18T22:19:37.368Z,23.90
2018-05-18T22:22:04.913Z,26.05
2018-05-18T22:24:33.255Z,24.08
2018-05-18T22:27:00.857Z,25.12
2018-05-18T22:29:29.135Z,23.55
2018-05-18T22:31:56.721Z,24.92
2018-05-18T22:34:24.352Z,26.67
2018-05-18T22:36:51.876Z,25.40
2018-05-18T22:39:19.400Z,29.83
2018-05-18T22:41:46.940Z,25.08
2018-05-18T22:44:14.441Z,27.37
2018-05-18T22:46:42.056Z,26.02
2018-05-18T22:49:09.577Z,25.88
2018-05-18T22:51:37.102Z,26.73
2018-05-18T22:54:04.634Z,26.12
2018-05-18T22:56:32.167Z,29.37
2018-05-18T22:58:59.683Z,26.50
2018-05-18T23:01:27.203Z,26.45
2018-05-18T23:03:54.743Z,27.23
2018-05-18T23:06:22.262Z,28.65
2018-05-18T23:08:49.790Z,30.05
2018-05-18T23:11:17.334Z,29.92
2018-05-18T23:13:45.625Z,30.27
2018-05-18T23:16:13.928Z,27.87
2018-05-18T23:18:41.449Z,29.53
2018-05-18T23:21:08.964Z,27.85
2018-05-18T23:23:36.537Z,28.83
2018-05-18T23:26:04.274Z,29.85
2018-05-18T23:28:31.788Z,33.88
2018-05-18T23:30:59.330Z,31.37
2018-05-18T23:33:26.880Z,28.85
2018-05-18T23:35:54.408Z,31.20
2018-05-18T23:38:22.000Z,32.97
2018-05-18T23:40:49.563Z,28.73
2018-05-18T23:43:17.240Z,35.15
2018-05-18T23:45:44.748Z,31.33
2018-05-18T23:48:12.264Z,29.70
2018-05-18T23:50:40.593Z,29.98
2018-05-18T23:53:08.208Z,30.60
2018-05-18T23:55:35.773Z,33.65
2018-05-18T23:58:03.476Z,34.63
